Time;durP1;ratioP1;P1;durP2;ratioP2;P2;SDS_P1;SDS_P2;PMS_P1;PMS_P2;Temp;Humidity;BMP_temperature;BMP_pressure;BME280_temperature;BME280_humidity;BME280_pressure;Samples;Min_cycle;Max_cycle;Signal;HPM_P1;HPM_P2
2022/03/13 00:02:02;;;;;;;25.58;23.10;;;;;;;-3.31;55.89;95961.06;5100506;28;20188;-67
2022/03/13 00:04:29;;;;;;;25.77;23.27;;;;;;;-3.31;55.78;95961.06;5100523;28;20180;-67
2022/03/13 00:06:56;;;;;;;25.02;22.45;;;;;;;-3.32;55.93;95955.91;5118198;28;20198;-67
2022/03/13 00:09:25;;;;;;;24.58;22.08;;;;;;;-3.35;55.82;95954.53;5099838;28;20625;-67
2022/03/13 00:11:53;;;;;;;26.75;24.08;;;;;;;-3.42;55.76;95951.16;5100420;28;20203;-67
2022/03/13 00:14:20;;;;;;;26.17;23.52;;;;;;;-3.41;55.93;95950.13;5117970;28;20294;-67
2022/03/13 00:16:48;;;;;;;25.98;23.38;;;;;;;-3.48;56.61;95944.88;5117789;28;20186;-67
2022/03/13 00:19:16;;;;;;;25.35;22.83;;;;;;;-3.51;56.92;95949.94;5117954;28;20263;-67
2022/03/13 00:21:45;;;;;;;25.63;22.92;;;;;;;-3.49;56.87;95950.50;5099951;28;20204;-67
2022/03/13 00:24:12;;;;;;;26.58;23.77;;;;;;;-3.45;57.14;95949.78;5099801;28;20199;-67
2022/03/13 00:26:40;;;;;;;26.95;24.25;;;;;;;-3.46;56.94;95947.31;5099683;28;20628;-68
2022/03/13 00:29:09;;;;;;;216.43;181.38;;;;;;;-3.58;56.46;95946.56;5117440;28;20176;-67
2022/03/13 00:31:36;;;;;;;210.65;187.90;;;;;;;-3.63;56.72;95950.81;5117632;28;20248;-67
2022/03/13 00:34:03;;;;;;;253.88;226.18;;;;;;;-3.57;56.91;95949.00;5117399;28;20199;-67
2022/03/13 00:36:30;;;;;;;153.45;136.88;;;;;;;-3.52;57.04;95948.28;5099882;28;20198;-68
2022/03/13 00:38:56;;;;;;;68.63;61.13;;;;;;;-3.53;57.63;95952.84;5099459;28;20552;-68
2022/03/13 00:41:23;;;;;;;36.53;32.60;;;;;;;-3.71;58.01;95944.97;5099689;28;20521;-67
2022/03/13 00:43:51;;;;;;;30.38;27.27;;;;;;;-3.82;58.41;95948.53;5107285;28;20670;-68
2022/03/13 00:46:18;;;;;;;28.83;25.92;;;;;;;-3.92;57.94;95947.31;5079108;28;20618;-67
2022/03/13 00:48:45;;;;;;;28.00;25.23;;;;;;;-3.96;58.02;95948.00;5079390;28;20200;-67
2022/03/13 00:51:12;;;;;;;28.63;25.60;;;;;;;-3.90;57.98;95947.06;5079199;28;20211;-67
2022/03/13 00:53:38;;;;;;;29.58;26.70;;;;;;;-3.98;58.21;95937.47;5097132;28;20192;-68
2022/03/13 00:56:05;;;;;;;29.23;26.33;;;;;;;-4.02;57.71;95935.50;5079370;28;20200;-68
2022/03/13 00:58:32;;;;;;;29.50;26.60;;;;;;;-3.96;57.65;95942.63;5096721;28;20185;-67
2022/03/13 01:01:01;;;;;;;29.10;26.33;;;;;;;-3.95;57.44;95931.63;5079157;28;20192;-67
2022/03/13 01:03:31;;;;;;;29.02;26.13;;;;;;;-3.95;57.86;95931.63;5096741;28;20284;-67
2022/03/13 01:05:59;;;;;;;27.00;24.38;;;;;;;-4.05;58.32;95933.28;5096372;28;20527;-67
2022/03/13 01:08:26;;;;;;;25.10;22.60;;;;;;;-4.11;58.33;95929.66;5096428;28;20216;-67
2022/03/13 01:10:53;;;;;;;24.85;22.35;;;;;;;-4.12;58.02;95926.16;5078858;28;20189;-67
2022/03/13 01:13:21;;;;;;;25.15;22.73;;;;;;;-4.08;58.45;95921.09;5096485;28;20184;-67
2022/03/13 01:15:48;;;;;;;25.20;22.80;;;;;;;-4.00;58.09;95923.41;5096402;28;20544;-67
2022/03/13 01:18:17;;;;;;;25.75;23.35;;;;;;;-3.95;57.69;95915.44;5096518;28;20197;-67
2022/03/13 01:20:47;;;;;;;25.75;23.35;;;;;;;-3.91;57.83;95908.50;5096458;28;20218;-67
2022/03/13 01:23:15;;;;;;;23.13;21.02;;;;;;;-3.99;58.29;95908.09;5078588;28;20201;-67
2022/03/13 01:25:42;;;;;;;20.30;18.50;;;;;;;-4.18;57.69;95905.56;5096176;28;20204;-67
2022/03/13 01:28:09;;;;;;;20.15;18.25;;;;;;;-4.28;58.16;95899.19;5096084;28;20255;-67
2022/03/13 01:30:35;;;;;;;20.35;18.45;;;;;;;-4.27;58.11;95901.63;5096106;28;20224;-67
2022/03/13 01:33:03;;;;;;;21.42;19.42;;;;;;;-4.22;58.10;95893.63;5096273;28;20188;-67
2022/03/13 01:35:31;;;;;;;21.55;19.55;;;;;;;-4.16;58.20;95886.47;5095853;28;20201;-68
2022/03/13 01:37:58;;;;;;;24.02;21.83;;;;;;;-4.14;58.00;95885.19;5078715;28;20200;-67
2022/03/13 01:40:25;;;;;;;25.13;22.92;;;;;;;-4.18;57.41;95881.31;5078701;28;20196;-67
2022/03/13 01:42:54;;;;;;;26.13;23.73;;;;;;;-4.15;58.33;95890.78;5096187;28;20261;-67
2022/03/13 01:45:25;;;;;;;25.58;23.17;;;;;;;-4.17;58.55;95887.53;5095665;28;20176;-67
2022/03/13 01:47:53;;;;;;;26.27;23.88;;;;;;;-4.18;58.58;95893.97;5096377;28;20188;-67
2022/03/13 01:50:20;;;;;;;26.98;24.48;;;;;;;-4.20;58.23;95894.22;5078369;28;20196;-67
2022/03/13 01:52:49;;;;;;;29.13;26.33;;;;;;;-4.21;57.87;95897.13;5096123;28;20199;-67
2022/03/13 01:55:17;;;;;;;34.97;31.58;;;;;;;-4.21;57.84;95894.44;5095680;28;20204;-67
2022/03/13 01:57:45;;;;;;;37.45;33.75;;;;;;;-4.24;58.19;95903.03;5078425;28;20220;-67
2022/03/13 02:00:13;;;;;;;36.53;32.80;;;;;;;-4.31;58.01;95905.84;5077893;28;20200;-67
2022/03/13 02:02:45;;;;;;;40.33;35.97;;;;;;;-4.23;57.54;95905.47;5095668;28;20272;-67
2022/03/13 02:05:23;;;;;;;39.13;35.00;;;;;;;-4.25;57.24;95913.00;5095510;28;20188;-67
2022/03/13 02:07:52;;;;;;;36.88;33.15;;;;;;;-4.32;57.24;95909.59;5095778;28;20184;-67
2022/03/13 02:10:19;;;;;;;34.03;30.40;;;;;;;-4.38;57.63;95910.56;5095178;28;20188;-67
2022/03/13 02:12:47;;;;;;;31.38;28.20;;;;;;;-4.44;57.19;95909.63;5095489;28;20191;-67
2022/03/13 02:15:14;;;;;;;32.67;29.38;;;;;;;-4.47;57.20;95909.28;5095507;28;20208;-67
2022/03/13 02:17:40;;;;;;;31.52;28.30;;;;;;;-4.46;56.93;95908.25;5095133;28;20538;-67
2022/03/13 02:20:14;;;;;;;28.38;25.67;;;;;;;-4.41;56.73;95906.44;5095653;28;20197;-68
2022/03/13 02:22:46;;;;;;;28.70;25.88;;;;;;;-4.39;56.73;95909.75;5077784;28;20188;-67
2022/03/13 02:25:19;;;;;;;28.25;25.52;;;;;;;-4.32;56.58;95906.91;5095272;28;20184;-67
2022/03/13 02:27:46;;;;;;;27.17;24.38;;;;;;;-4.31;56.94;95902.34;5077634;28;20303;-67
2022/03/13 02:30:13;;;;;;;28.00;25.25;;;;;;;-4.38;56.98;95914.06;5095400;28;20192;-67
2022/03/13 02:32:40;;;;;;;29.95;27.02;;;;;;;-4.47;57.44;95910.09;5077602;28;20188;-67
2022/03/13 02:35:07;;;;;;;31.00;27.85;;;;;;;-4.53;57.82;95916.44;5095190;28;20257;-67
2022/03/13 02:37:38;;;;;;;31.25;27.95;;;;;;;-4.53;57.96;95911.06;5077590;28;20196;-67
2022/03/13 02:40:09;;;;;;;29.85;26.95;;;;;;;-4.53;58.46;95912.94;5095233;28;20185;-67
2022/03/13 02:42:36;;;;;;;29.10;26.33;;;;;;;-4.52;58.44;95906.50;5077418;28;20560;-67
2022/03/13 02:45:03;;;;;;;28.23;25.48;;;;;;;-4.58;57.90;95916.31;5094609;28;20264;-67
2022/03/13 02:47:30;;;;;;;28.95;26.10;;;;;;;-4.62;58.10;95915.97;5077304;28;20290;-67
2022/03/13 02:49:57;;;;;;;29.45;26.50;;;;;;;-4.59;58.50;95917.38;5095042;28;20616;-67
2022/03/13 02:52:24;;;;;;;28.65;25.85;;;;;;;-4.62;58.24;95923.22;5095129;28;20199;-67
2022/03/13 02:54:51;;;;;;;28.38;25.67;;;;;;;-4.64;58.79;95920.78;5094692;28;20565;-67
2022/03/13 02:57:19;;;;;;;29.63;26.80;;;;;;;-4.59;59.39;95917.38;5094973;28;20184;-67
2022/03/13 02:59:46;;;;;;;26.60;24.20;;;;;;;-4.51;58.42;95914.31;5094709;28;20203;-67
2022/03/13 03:02:13;;;;;;;27.10;24.60;;;;;;;-4.50;58.25;95918.66;5094795;28;20189;-67
2022/03/13 03:04:40;;;;;;;26.05;23.48;;;;;;;-4.44;58.07;95909.63;5077449;28;20196;-67
2022/03/13 03:07:07;;;;;;;26.08;23.58;;;;;;;-4.39;57.76;95906.22;5076382;28;20208;-67
2022/03/13 03:09:35;;;;;;;27.65;25.10;;;;;;;-4.48;58.76;95900.38;5094555;28;20185;-67
2022/03/13 03:12:04;;;;;;;29.08;26.30;;;;;;;-4.51;58.87;95903.53;5094736;28;20255;-67
2022/03/13 03:14:33;;;;;;;28.00;25.40;;;;;;;-4.54;58.54;95895.94;5094911;28;20216;-67
2022/03/13 03:17:00;;;;;;;27.77;25.27;;;;;;;-4.53;58.92;95894.91;5077201;28;20196;-67
2022/03/13 03:19:27;;;;;;;28.63;25.92;;;;;;;-4.56;58.53;95898.06;5094774;28;20180;-67
2022/03/13 03:21:54;;;;;;;27.15;24.65;;;;;;;-4.64;58.76;95906.53;5094893;28;20194;-67
2022/03/13 03:24:22;;;;;;;26.23;23.83;;;;;;;-4.72;59.42;95896.94;5080276;28;20207;-67
2022/03/13 03:26:49;;;;;;;24.83;22.55;;;;;;;-4.74;59.10;95893.66;5098685;28;20192;-67
2022/03/13 03:29:16;;;;;;;25.13;22.83;;;;;;;-4.76;59.38;95903.81;5080850;28;20547;-67
2022/03/13 03:31:46;;;;;;;25.58;23.27;;;;;;;-4.76;59.52;95898.44;5081009;28;20197;-67
2022/03/13 03:34:16;;;;;;;25.10;22.80;;;;;;;-4.77;59.39;95891.44;5098559;28;20185;-67
2022/03/13 03:36:45;;;;;;;24.60;22.30;;;;;;;-4.74;59.29;95890.97;5098559;28;20195;-67
2022/03/13 03:39:12;;;;;;;24.25;21.85;;;;;;;-4.72;59.08;95888.03;5098263;28;20606;-67
2022/03/13 03:41:39;;;;;;;25.85;23.42;;;;;;;-4.73;59.24;95884.50;5098396;28;20273;-67
2022/03/13 03:44:07;;;;;;;25.17;22.88;;;;;;;-4.67;59.22;95886.25;5092486;28;20245;-67
2022/03/13 03:46:34;;;;;;;27.27;24.67;;;;;;;-4.63;59.30;95892.81;5101013;28;20195;-67
2022/03/13 03:49:03;;;;;;;25.83;23.33;;;;;;;-4.65;59.30;95886.88;5100974;28;20291;-67
2022/03/13 03:51:30;;;;;;;24.95;22.55;;;;;;;-4.66;59.45;95892.47;5100768;28;20211;-67
2022/03/13 03:53:57;;;;;;;25.25;22.85;;;;;;;-4.65;59.49;95894.09;5118693;28;20190;-67
2022/03/13 03:56:24;;;;;;;24.55;22.35;;;;;;;-4.65;59.74;95894.09;5100331;28;20211;-67
2022/03/13 03:58:50;;;;;;;26.02;23.55;;;;;;;-4.70;59.72;95896.69;5118659;28;20184;-67
2022/03/13 04:01:17;;;;;;;25.83;23.42;;;;;;;-4.71;59.61;95889.69;5118495;28;20183;-68
2022/03/13 04:03:44;;;;;;;25.55;23.25;;;;;;;-4.72;59.57;95894.25;5118347;28;20204;-68
2022/03/13 04:06:13;;;;;;;26.05;23.73;;;;;;;-4.72;60.09;95902.31;5118686;28;20192;-68
2022/03/13 04:08:39;;;;;;;25.55;23.15;;;;;;;-4.74;60.44;95903.59;5100786;28;20199;-68
2022/03/13 04:11:08;;;;;;;25.98;23.48;;;;;;;-4.71;60.41;95892.38;5118393;28;20196;-67
2022/03/13 04:13:38;;;;;;;26.85;24.25;;;;;;;-4.66;59.44;95887.91;5117988;28;20597;-68
2022/03/13 04:16:06;;;;;;;24.55;22.15;;;;;;;-4.64;58.08;95879.59;5100105;28;20546;-68
2022/03/13 04:18:34;;;;;;;21.63;19.73;;;;;;;-4.58;58.49;95878.63;5100769;28;20257;-67
2022/03/13 04:21:02;;;;;;;24.42;22.02;;;;;;;-4.55;57.37;95880.03;5099920;28;20218;-67
2022/03/13 04:23:30;;;;;;;22.85;20.77;;;;;;;-4.56;57.13;95875.72;5117814;28;20188;-67
2022/03/13 04:25:57;;;;;;;22.17;19.98;;;;;;;-4.60;56.96;95875.38;5100088;28;20195;-67
2022/03/13 04:28:24;;;;;;;20.08;18.27;;;;;;;-4.66;56.80;95865.53;5117829;28;20500;-67
2022/03/13 04:30:59;;;;;;;20.38;18.40;;;;;;;-4.73;57.17;95870.25;5099996;28;20241;-68
2022/03/13 04:33:26;;;;;;;20.88;18.92;;;;;;;-4.78;56.98;95865.56;5117319;28;20202;-67
2022/03/13 04:35:57;;;;;;;19.40;17.60;;;;;;;-4.72;56.74;95866.47;5117769;28;20214;-67
2022/03/13 04:38:26;;;;;;;18.80;17.10;;;;;;;-4.70;56.35;95867.88;5118090;28;20276;-67
2022/03/13 04:40:55;;;;;;;18.20;16.52;;;;;;;-4.67;56.27;95866.59;5117689;28;20184;-67
2022/03/13 04:43:23;;;;;;;17.58;15.98;;;;;;;-4.57;56.86;95876.78;5112085;28;20673;-67
2022/03/13 04:45:51;;;;;;;17.83;16.30;;;;;;;-4.47;56.27;95877.78;5096943;28;20180;-67
2022/03/13 04:48:18;;;;;;;17.83;16.23;;;;;;;-4.49;56.07;95873.72;5097114;28;20199;-67
2022/03/13 04:50:45;;;;;;;18.95;17.13;;;;;;;-4.56;57.17;95881.91;5079071;28;20622;-68
2022/03/13 04:53:13;;;;;;;20.52;18.63;;;;;;;-4.63;57.67;95878.53;5096729;28;20184;-66
2022/03/13 04:55:40;;;;;;;29.92;27.13;;;;;;;-4.62;57.05;95874.78;5096829;28;20209;-67
2022/03/13 04:58:08;;;;;;;31.90;29.30;;;;;;;-4.56;56.92;95870.34;5096914;28;20180;-67
2022/03/13 05:00:36;;;;;;;28.60;26.10;;;;;;;-4.66;56.87;95869.06;5079251;28;20605;-67
2022/03/13 05:03:03;;;;;;;23.08;20.98;;;;;;;-4.64;56.72;95876.91;5096806;28;20184;-67
2022/03/13 05:05:29;;;;;;;19.67;17.85;;;;;;;-4.65;57.64;95880.63;5096431;28;20187;-67
2022/03/13 05:07:56;;;;;;;19.88;17.92;;;;;;;-4.70;57.37;95877.84;5096757;28;20199;-67
2022/03/13 05:10:24;;;;;;;20.00;18.02;;;;;;;-4.70;57.31;95873.28;5079159;28;20193;-67
2022/03/13 05:12:50;;;;;;;19.40;17.50;;;;;;;-4.68;57.42;95873.88;5096679;28;20216;-67
2022/03/13 05:15:19;;;;;;;17.38;15.77;;;;;;;-4.74;56.81;95887.44;5078592;28;20220;-67
2022/03/13 05:17:46;;;;;;;19.35;17.55;;;;;;;-4.69;57.19;95891.06;5078831;28;20200;-67
2022/03/13 05:20:13;;;;;;;22.40;20.27;;;;;;;-4.66;57.18;95893.28;5096609;28;20602;-67
2022/03/13 05:22:40;;;;;;;21.20;19.25;;;;;;;-4.61;57.16;95882.63;5096254;28;20287;-67
2022/03/13 05:25:08;;;;;;;25.23;22.83;;;;;;;-4.66;56.93;95895.97;5096474;28;20262;-67
2022/03/13 05:27:35;;;;;;;28.45;25.65;;;;;;;-4.62;57.02;95891.75;5096026;28;20184;-67
2022/03/13 05:30:01;;;;;;;28.50;25.70;;;;;;;-4.68;57.53;95895.41;5096432;28;20276;-67
2022/03/13 05:32:30;;;;;;;29.83;26.92;;;;;;;-4.65;57.71;95903.00;5096246;28;20217;-68
2022/03/13 05:34:57;;;;;;;28.38;25.65;;;;;;;-4.58;57.45;95893.97;5095733;28;20211;-67
2022/03/13 05:37:25;;;;;;;26.77;24.27;;;;;;;-4.58;57.26;95893.97;5096179;28;20188;-67
2022/03/13 05:39:52;;;;;;;23.08;21.02;;;;;;;-4.48;57.28;95884.22;5096309;28;20231;-67
2022/03/13 05:42:19;;;;;;;21.63;19.63;;;;;;;-4.49;56.55;95882.59;5096252;28;20199;-67
2022/03/13 05:44:46;;;;;;;20.83;18.95;;;;;;;-4.39;57.18;95885.50;5095662;28;20243;-67
2022/03/13 05:47:13;;;;;;;20.25;18.33;;;;;;;-4.30;57.01;95885.13;5077565;28;20549;-67
2022/03/13 05:49:44;;;;;;;19.42;17.52;;;;;;;-4.23;57.16;95891.19;5095590;28;20188;-67
2022/03/13 05:52:13;;;;;;;18.80;17.10;;;;;;;-4.17;56.54;95892.94;5078171;28;20637;-67
2022/03/13 05:54:40;;;;;;;18.33;16.63;;;;;;;-4.11;56.94;95900.03;5095891;28;20180;-67
2022/03/13 05:57:10;;;;;;;16.88;15.38;;;;;;;-4.03;56.31;95898.81;5095669;28;20212;-67
2022/03/13 05:59:37;;;;;;;16.33;14.82;;;;;;;-3.93;56.00;95883.66;5095900;28;20188;-67
2022/03/13 06:02:04;;;;;;;16.58;15.00;;;;;;;-3.88;55.75;95894.56;5078406;28;20553;-67
2022/03/13 06:04:32;;;;;;;16.00;14.50;;;;;;;-3.85;55.67;95895.94;5078082;28;20293;-67
2022/03/13 06:07:00;;;;;;;17.27;15.77;;;;;;;-3.79;55.96;95899.53;5095509;28;20188;-67
2022/03/13 06:09:27;;;;;;;17.98;16.27;;;;;;;-3.80;55.64;95906.00;5078051;28;20300;-67
2022/03/13 06:11:54;;;;;;;18.08;16.33;;;;;;;-3.79;55.28;95899.53;5095353;28;20194;-67
2022/03/13 06:14:22;;;;;;;17.45;15.90;;;;;;;-3.79;55.32;95904.94;5095574;28;20184;-67
2022/03/13 06:16:48;;;;;;;17.80;16.13;;;;;;;-3.79;55.32;95907.63;5095497;28;20299;-67
2022/03/13 06:19:15;;;;;;;20.55;18.65;;;;;;;-3.72;55.57;95911.00;5095061;28;20181;-67
2022/03/13 06:21:42;;;;;;;24.13;21.83;;;;;;;-3.69;56.01;95907.81;5095462;28;20180;-67
2022/03/13 06:24:10;;;;;;;26.75;24.13;;;;;;;-3.65;56.06;95907.09;5095110;28;20176;-67
2022/03/13 06:26:37;;;;;;;30.60;27.60;;;;;;;-3.57;55.89;95913.13;5095481;28;20176;-67
2022/03/13 06:29:04;;;;;;;31.20;28.27;;;;;;;-3.53;55.21;95909.72;5095382;28;20184;-67
2022/03/13 06:31:31;;;;;;;26.23;23.73;;;;;;;-3.42;55.79;95906.13;5077538;28;20200;-67
2022/03/13 06:33:57;;;;;;;21.65;19.52;;;;;;;-3.31;54.41;95906.28;5095498;28;20203;-67
2022/03/13 06:36:24;;;;;;;23.23;21.08;;;;;;;-3.29;54.32;95914.97;5077210;28;20220;-67
2022/03/13 06:38:51;;;;;;;27.75;25.13;;;;;;;-3.28;55.02;95912.00;5077451;28;20200;-67
2022/03/13 06:41:20;;;;;;;37.72;34.22;;;;;;;-3.24;55.04;95923.94;5095034;28;20193;-67
2022/03/13 06:43:47;;;;;;;35.40;32.10;;;;;;;-3.27;54.91;95919.06;5094971;28;20246;-67
2022/03/13 06:46:14;;;;;;;35.15;31.95;;;;;;;-3.21;54.90;95922.66;5095166;28;20184;-67
2022/03/13 06:48:42;;;;;;;35.33;32.10;;;;;;;-3.17;55.15;95921.09;5095157;28;20219;-67
2022/03/13 06:51:09;;;;;;;31.10;28.30;;;;;;;-3.08;54.62;95925.03;5095193;28;20200;-67
2022/03/13 06:53:36;;;;;;;27.95;25.25;;;;;;;-3.05;54.17;95918.31;5077734;28;20196;-66
2022/03/13 06:56:03;;;;;;;24.70;22.23;;;;;;;-2.95;53.62;95913.88;5095135;28;20232;-66
2022/03/13 06:58:32;;;;;;;24.60;22.17;;;;;;;-2.93;52.94;95911.75;5081305;28;20184;-67
2022/03/13 07:00:58;;;;;;;20.35;18.30;;;;;;;-2.85;53.03;95907.81;5099280;28;20184;-68
2022/03/13 07:03:25;;;;;;;21.92;19.77;;;;;;;-2.77;52.41;95895.78;5097668;28;20430;-68
2022/03/13 07:05:52;;;;;;;20.20;18.10;;;;;;;-2.68;52.40;95899.69;5098974;28;20180;-67
2022/03/13 07:08:19;;;;;;;20.10;17.92;;;;;;;-2.57;52.16;95893.38;5081584;28;20287;-70
2022/03/13 07:10:46;;;;;;;20.95;18.85;;;;;;;-2.49;51.48;95889.41;5098021;28;20434;-67
2022/03/13 07:13:17;;;;;;;20.77;18.50;;;;;;;-2.44;51.48;95887.56;5080807;28;20291;-68
2022/03/13 07:15:46;;;;;;;21.10;18.17;;;;;;;-2.36;51.22;95882.81;5098614;28;20234;-68
2022/03/13 07:18:13;;;;;;;22.30;20.02;;;;;;;-2.24;52.11;95883.50;5099038;28;20189;-68
2022/03/13 07:20:40;;;;;;;19.40;17.55;;;;;;;-2.13;51.56;95882.56;5098790;28;20188;-67
2022/03/13 07:23:06;;;;;;;21.67;18.27;;;;;;;-2.04;51.51;95877.50;5081235;28;20196;-67
2022/03/13 07:25:33;;;;;;;20.60;18.58;;;;;;;-1.91;51.37;95887.13;5081118;28;20192;-68
2022/03/13 07:28:00;;;;;;;20.20;17.80;;;;;;;-1.79;51.65;95883.19;5098747;28;20184;-67
2022/03/13 07:30:27;;;;;;;21.55;17.75;;;;;;;-1.64;51.20;95890.63;5080887;28;20201;-67
2022/03/13 07:32:55;;;;;;;20.42;18.30;;;;;;;-1.56;50.07;95890.19;5098668;28;20192;-67
2022/03/13 07:35:22;;;;;;;18.92;17.05;;;;;;;-1.49;50.34;95888.09;5098471;28;20189;-68
2022/03/13 07:37:49;;;;;;;19.67;17.67;;;;;;;-1.44;50.27;95890.03;5080867;28;20227;-67
2022/03/13 07:40:16;;;;;;;20.90;18.63;;;;;;;-1.31;50.33;95886.06;5080730;28;20192;-68
2022/03/13 07:42:43;;;;;;;23.95;21.55;;;;;;;-1.22;50.11;95889.94;5080679;28;20561;-68
2022/03/13 07:45:10;;;;;;;25.08;22.38;;;;;;;-1.11;50.09;95888.94;5080708;28;20245;-68
2022/03/13 07:47:37;;;;;;;36.65;33.13;;;;;;;-0.94;51.02;95888.81;5078755;28;20197;-68
2022/03/13 07:50:07;;;;;;;33.63;30.17;;;;;;;-0.85;50.88;95894.53;5098273;28;20192;-68
2022/03/13 07:52:34;;;;;;;33.60;30.20;;;;;;;-0.89;50.48;95882.59;5098190;28;20195;-68
2022/03/13 07:55:01;;;;;;;33.05;29.77;;;;;;;-0.72;50.02;95888.66;5097892;28;20192;-68
2022/03/13 07:57:28;;;;;;;35.00;31.65;;;;;;;-0.57;50.10;95891.47;5080182;28;20219;-68
2022/03/13 07:59:55;;;;;;;32.90;29.73;;;;;;;-0.46;50.46;95884.22;5081001;28;20203;-68
2022/03/13 08:02:22;;;;;;;33.60;30.30;;;;;;;-0.48;48.81;95880.94;5080225;28;20547;-68
2022/03/13 08:04:49;;;;;;;34.75;31.45;;;;;;;-0.56;50.34;95886.84;5098060;28;20192;-68
2022/03/13 08:07:17;;;;;;;32.05;28.63;;;;;;;-0.38;48.80;95872.03;5080166;28;20192;-69
2022/03/13 08:09:44;;;;;;;31.23;28.08;;;;;;;-0.28;48.51;95870.19;5097077;28;20283;-68
2022/03/13 08:12:15;;;;;;;31.10;27.98;;;;;;;-0.20;48.55;95862.63;5080062;28;20204;-69
2022/03/13 08:14:42;;;;;;;32.42;29.13;;;;;;;-0.04;48.30;95857.00;5097726;28;20196;-68
2022/03/13 08:17:09;;;;;;;30.60;27.55;;;;;;;0.07;48.72;95849.69;5079822;28;20220;-68
2022/03/13 08:19:35;;;;;;;29.88;26.80;;;;;;;0.24;48.15;95847.56;5097773;28;20193;-68
2022/03/13 08:22:02;;;;;;;31.83;28.40;;;;;;;0.35;47.52;95848.41;5079818;28;20613;-67
2022/03/13 08:24:30;;;;;;;32.03;28.80;;;;;;;0.38;47.03;95845.16;5079812;28;20208;-70
2022/03/13 08:26:57;;;;;;;32.13;29.02;;;;;;;0.30;46.12;95842.97;5097603;28;20552;-68
2022/03/13 08:29:24;;;;;;;31.40;28.30;;;;;;;0.39;48.04;95846.78;5097445;28;20184;-68
2022/03/13 08:31:51;;;;;;;32.15;28.85;;;;;;;0.64;47.54;95845.16;5079800;28;20211;-67
2022/03/13 08:34:19;;;;;;;31.45;28.33;;;;;;;0.88;48.08;95848.97;5097370;28;20193;-68
2022/03/13 08:36:46;;;;;;;31.40;28.15;;;;;;;1.04;47.06;95848.97;5079709;28;20220;-68
2022/03/13 08:39:13;;;;;;;37.03;33.33;;;;;;;0.98;46.41;95839.19;5097240;28;20184;-67
2022/03/13 08:41:42;;;;;;;37.50;33.75;;;;;;;0.87;46.46;95844.63;5079935;28;20193;-68
2022/03/13 08:44:09;;;;;;;24.95;22.55;;;;;;;0.98;45.77;95841.88;5109298;28;20277;-67
2022/03/13 08:46:35;;;;;;;28.63;25.88;;;;;;;1.24;46.04;95843.50;5099970;28;20226;-67
2022/03/13 08:49:02;;;;;;;29.15;26.35;;;;;;;1.46;45.40;95845.09;5100382;28;20284;-67
2022/03/13 08:51:29;;;;;;;39.92;36.00;;;;;;;1.51;45.04;95839.63;5117468;28;20180;-67
2022/03/13 08:53:57;;;;;;;41.50;37.30;;;;;;;1.62;45.18;95824.91;5117265;28;20208;-67
2022/03/13 08:56:24;;;;;;;38.53;34.72;;;;;;;1.68;45.97;95827.31;5099734;28;20207;-67
2022/03/13 08:58:53;;;;;;;35.45;32.05;;;;;;;1.72;44.78;95819.44;5099670;28;20248;-67
2022/03/13 09:01:21;;;;;;;18.42;16.40;;;;;;;1.82;43.01;95833.00;5099040;28;20206;-67
2022/03/13 09:03:48;;;;;;;17.55;15.75;;;;;;;1.98;43.00;95828.28;5117523;28;20218;-67
2022/03/13 09:06:15;;;;;;;16.17;14.48;;;;;;;2.21;42.85;95820.53;5116928;28;20222;-70
2022/03/13 09:08:42;;;;;;;15.90;14.30;;;;;;;2.41;42.71;95828.56;5099332;28;20199;-66
2022/03/13 09:11:09;;;;;;;15.88;14.18;;;;;;;2.60;44.53;95820.53;5117459;28;20184;-67
2022/03/13 09:13:37;;;;;;;19.40;15.85;;;;;;;2.80;45.79;95820.41;5117626;28;20195;-67
2022/03/13 09:16:06;;;;;;;17.17;15.48;;;;;;;2.84;44.32;95817.91;5117178;28;20274;-67
2022/03/13 09:18:32;;;;;;;17.63;15.82;;;;;;;2.89;42.32;95815.13;5116953;28;20199;-67
2022/03/13 09:20:59;;;;;;;18.83;16.92;;;;;;;2.68;43.47;95806.31;5115601;28;20516;-68
2022/03/13 09:23:26;;;;;;;22.83;19.23;;;;;;;2.54;44.68;95805.31;5116733;28;20514;-66
2022/03/13 09:25:53;;;;;;;20.08;17.98;;;;;;;2.43;44.71;95807.31;5099262;28;20214;-70
2022/03/13 09:28:20;;;;;;;18.45;16.63;;;;;;;2.32;44.69;95805.75;5116996;28;20194;-66
2022/03/13 09:30:47;;;;;;;20.80;17.75;;;;;;;2.37;45.39;95808.47;5116977;28;20192;-66
2022/03/13 09:33:15;;;;;;;20.60;17.67;;;;;;;2.54;43.46;95799.88;5116658;28;20184;-66
2022/03/13 09:35:42;;;;;;;17.75;15.90;;;;;;;2.73;45.29;95789.13;5116441;28;20180;-66
2022/03/13 09:38:09;;;;;;;19.95;16.75;;;;;;;2.89;44.88;95798.78;5098883;28;20222;-66
2022/03/13 09:40:36;;;;;;;22.73;18.77;;;;;;;3.08;46.38;95804.31;5098996;28;20195;-67
2022/03/13 09:43:05;;;;;;;21.58;19.38;;;;;;;3.24;44.80;95797.63;5116687;28;20249;-67
2022/03/13 09:45:32;;;;;;;22.00;19.70;;;;;;;3.27;43.42;95797.06;5098306;28;20192;-67
2022/03/13 09:48:00;;;;;;;19.52;17.50;;;;;;;2.99;42.15;95787.78;5116402;28;20179;-67
2022/03/13 09:50:28;;;;;;;19.38;17.48;;;;;;;3.00;44.33;95794.06;5116233;28;20184;-67
2022/03/13 09:52:55;;;;;;;23.35;17.85;;;;;;;3.03;44.27;95786.13;5098446;28;20510;-66
2022/03/13 09:55:22;;;;;;;20.52;17.65;;;;;;;3.13;44.13;95774.31;5116318;28;20194;-66
2022/03/13 09:57:52;;;;;;;19.90;17.40;;;;;;;3.24;44.29;95786.72;5098842;28;20312;-66
2022/03/13 10:00:21;;;;;;;20.30;18.15;;;;;;;3.38;44.17;95774.03;5116351;28;20188;-66
2022/03/13 10:02:48;;;;;;;20.15;17.48;;;;;;;3.52;44.36;95774.16;5116067;28;20199;-66
2022/03/13 10:05:16;;;;;;;14.55;12.55;;;;;;;3.71;43.00;95765.19;5116087;28;20199;-66
2022/03/13 10:07:59;;;;;;;14.80;13.40;;;;;;;3.85;41.63;95766.91;5116104;28;20281;-66
2022/03/13 10:10:28;;;;;;;14.38;12.85;;;;;;;3.79;44.28;95767.28;5116068;28;20196;-66
2022/03/13 10:12:54;;;;;;;18.88;13.32;;;;;;;3.71;42.27;95767.94;5115853;28;20203;-66
2022/03/13 10:15:21;;;;;;;15.13;12.68;;;;;;;3.45;42.67;95756.50;5115529;28;20188;-66
2022/03/13 10:17:49;;;;;;;15.45;13.93;;;;;;;3.45;42.67;95759.22;5115765;28;20222;-66
2022/03/13 10:20:19;;;;;;;15.70;14.10;;;;;;;3.48;42.43;95753.19;5098093;28;20233;-66
2022/03/13 10:22:47;;;;;;;15.55;13.90;;;;;;;3.52;43.16;95759.69;5117205;28;20180;-67
2022/03/13 10:25:28;;;;;;;14.05;12.63;;;;;;;3.51;42.16;95761.59;5116439;28;20196;-67
2022/03/13 10:27:55;;;;;;;13.38;11.80;;;;;;;3.48;40.86;95754.00;5099470;28;20203;-69
2022/03/13 10:30:23;;;;;;;12.95;11.57;;;;;;;3.54;43.38;95754.75;5097895;28;20209;-68
2022/03/13 10:32:56;;;;;;;14.20;12.70;;;;;;;3.65;43.08;95758.97;5097047;28;20192;-68
2022/03/13 10:35:23;;;;;;;13.30;11.88;;;;;;;3.69;41.55;95754.56;5115354;28;20183;-68
2022/03/13 10:37:49;;;;;;;13.48;11.60;;;;;;;3.80;43.04;95753.31;5097759;28;20215;-68
2022/03/13 10:40:22;;;;;;;11.75;10.55;;;;;;;3.94;41.91;95749.88;5115799;28;20180;-67
2022/03/13 10:42:50;;;;;;;11.77;10.20;;;;;;;3.96;41.58;95742.19;5097343;28;20609;-67
2022/03/13 10:45:38;;;;;;;11.65;10.43;;;;;;;3.99;42.26;95739.69;5115578;28;20194;-67
2022/03/13 10:48:21;;;;;;;12.02;10.38;;;;;;;4.02;39.69;95728.19;5115545;28;20183;-67
2022/03/13 10:50:50;;;;;;;10.32;9.25;;;;;;;4.02;42.35;95725.44;5098003;28;20195;-67
2022/03/13 10:53:18;;;;;;;12.13;9.75;;;;;;;4.01;42.98;95729.28;5115386;28;20180;-67
2022/03/13 10:56:03;;;;;;;9.52;8.00;;;;;;;4.04;39.95;95730.63;5115461;28;20199;-68
2022/03/13 10:58:31;;;;;;;9.27;8.23;;;;;;;4.06;42.26;95725.69;5115143;28;20196;-67
2022/03/13 11:01:06;;;;;;;8.50;7.70;;;;;;;4.10;41.72;95729.44;5115631;28;20188;-68
2022/03/13 11:03:34;;;;;;;8.63;7.82;;;;;;;3.98;36.09;95729.88;5115505;28;20197;-67
2022/03/13 11:06:01;;;;;;;8.38;7.57;;;;;;;3.95;37.12;95721.47;5115174;28;20195;-67
2022/03/13 11:08:28;;;;;;;8.48;7.70;;;;;;;3.90;36.47;95721.56;5115052;28;20190;-68
2022/03/13 11:10:57;;;;;;;8.50;7.60;;;;;;;3.84;37.02;95715.34;5097359;28;20191;-68
2022/03/13 11:13:27;;;;;;;8.52;7.63;;;;;;;3.93;39.38;95716.31;5114919;28;20549;-67
2022/03/13 11:15:56;;;;;;;8.75;7.72;;;;;;;3.92;36.48;95717.44;5114921;28;20200;-67
2022/03/13 11:18:24;;;;;;;8.68;7.82;;;;;;;3.93;37.13;95707.31;5096923;28;20219;-68
2022/03/13 11:20:51;;;;;;;9.45;8.10;;;;;;;3.97;37.62;95713.81;5097449;28;20207;-67
2022/03/13 11:23:18;;;;;;;9.88;8.38;;;;;;;3.94;36.52;95708.94;5097325;28;20200;-67